Time;durP1;ratioP1;P1;durP2;ratioP2;P2;SDS_P1;SDS_P2;PMS_P1;PMS_P2;Temp;Humidity;BMP_temperature;BMP_pressure;BME280_temperature;BME280_humidity;BME280_pressure;Samples;Min_cycle;Max_cycle;Signal;HPM_P1;HPM_P2
2022/01/20 00:03:40;;;;;;;13.20;3.00;;;5.30;99.90;;;;;;6042865;23;20057;-79
2022/01/20 00:08:50;;;;;;;15.70;2.65;;;5.00;99.90;;;;;;6068893;23;20438;-79
2022/01/20 00:27:51;;;;;;;20.40;2.70;;;5.00;99.90;;;;;;6041555;23;20374;-80
2022/01/20 00:32:56;;;;;;;17.83;2.50;;;5.00;99.90;;;;;;6042105;23;20142;-80
2022/01/20 00:35:29;;;;;;;20.33;2.53;;;5.00;99.90;;;;;;6021828;23;20043;-79
2022/01/20 00:37:55;;;;;;;13.73;2.42;;;5.30;99.90;;;;;;6042763;23;20050;-80
2022/01/20 00:40:21;;;;;;;22.17;3.20;;;5.80;99.90;;;;;;6067583;23;20572;-80
2022/01/20 00:42:47;;;;;;;16.90;2.90;;;5.00;99.90;;;;;;6043022;23;20057;-80
2022/01/20 00:45:13;;;;;;;18.63;2.90;;;5.10;99.90;;;;;;6018836;23;20353;-80
2022/01/20 00:47:39;;;;;;;18.60;2.50;;;5.00;99.90;;;;;;6042573;23;20018;-80
2022/01/20 00:50:08;;;;;;;19.92;3.03;;;5.00;99.90;;;;;;6042653;23;20524;-81
2022/01/20 00:52:39;;;;;;;15.55;2.25;;;5.00;99.90;;;;;;6042129;23;20677;-80
2022/01/20 00:55:06;;;;;;;18.33;2.92;;;5.00;99.90;;;;;;6019100;23;20099;-81
2022/01/20 00:57:32;;;;;;;26.30;3.28;;;5.00;99.90;;;;;;6042383;23;20387;-81
2022/01/20 00:59:57;;;;;;;23.10;2.67;;;5.00;99.90;;;;;;6043162;23;20330;-81
2022/01/20 01:02:23;;;;;;;19.15;3.10;;;5.00;99.90;;;;;;6042323;23;20015;-81
2022/01/20 01:04:49;;;;;;;26.95;3.20;;;5.60;99.90;;;;;;5995577;23;20074;-81
2022/01/20 01:07:44;;;;;;;20.88;2.67;;;5.00;99.90;;;;;;5995603;23;20018;-79
2022/01/20 01:10:13;;;;;;;17.48;2.40;;;5.00;99.90;;;;;;6042453;23;20346;-79
2022/01/20 01:15:26;;;;;;;14.48;1.70;;;4.90;99.90;;;;;;6041258;23;20489;-79
2022/01/20 01:23:22;;;;;;;8.80;1.10;;;4.80;99.90;;;;;;6042233;23;20058;-79
2022/01/20 01:25:48;;;;;;;7.40;1.27;;;4.70;99.90;;;;;;6018394;23;20022;-79
2022/01/20 01:28:17;;;;;;;11.30;1.33;;;4.70;99.90;;;;;;6018216;23;20018;-79
2022/01/20 01:33:29;;;;;;;9.05;1.10;;;4.70;99.90;;;;;;6042227;23;20094;-78
2022/01/20 01:35:57;;;;;;;12.95;1.40;;;4.70;99.90;;;;;;6018860;23;20019;-78
2022/01/20 01:38:37;;;;;;;16.05;1.70;;;4.60;99.90;;;;;;6067774;23;20025;-78
2022/01/20 01:41:10;;;;;;;16.05;2.00;;;4.60;99.90;;;;;;6041987;23;20019;-79
2022/01/20 01:43:42;;;;;;;9.73;1.73;;;4.90;99.90;;;;;;6067635;23;20019;-78
2022/01/20 01:46:09;;;;;;;10.30;1.75;;;5.10;99.90;;;;;;6042571;23;20070;-78
2022/01/20 01:48:35;;;;;;;11.23;1.80;;;4.60;99.90;;;;;;6067153;23;20018;-78
2022/01/20 01:51:00;;;;;;;17.67;2.38;;;4.70;99.90;;;;;;6041698;23;20014;-78
2022/01/20 01:53:27;;;;;;;13.02;2.13;;;4.60;99.90;;;;;;6018890;23;20015;-79
2022/01/20 01:55:54;;;;;;;14.07;1.70;;;4.70;99.90;;;;;;6067821;23;20042;-77
2022/01/20 01:58:20;;;;;;;15.18;2.00;;;4.70;99.90;;;;;;6042120;23;20070;-78
2022/01/20 02:00:46;;;;;;;21.20;2.72;;;4.70;99.90;;;;;;6067456;23;20046;-78
2022/01/20 02:03:13;;;;;;;19.63;2.50;;;4.70;99.90;;;;;;6067185;23;20066;-79
2022/01/20 02:05:56;;;;;;;25.73;2.85;;;4.70;99.90;;;;;;5995489;23;20082;-79
2022/01/20 02:19:27;;;;;;;17.95;2.53;;;4.80;99.90;;;;;;6067260;23;20346;-80
2022/01/20 02:21:56;;;;;;;26.55;3.35;;;4.80;99.90;;;;;;6041922;23;20022;-78
2022/01/20 02:24:23;;;;;;;24.65;3.97;;;4.90;99.90;;;;;;6067841;23;20017;-79
2022/01/20 02:26:49;;;;;;;17.67;2.85;;;5.10;99.90;;;;;;6067963;23;20334;-78
2022/01/20 02:29:15;;;;;;;21.95;3.38;;;4.50;99.90;;;;;;6042028;23;20019;-78
2022/01/20 02:31:41;;;;;;;19.08;2.65;;;4.40;99.90;;;;;;6043198;23;20022;-79
2022/01/20 02:34:12;;;;;;;23.00;3.30;;;4.30;99.90;;;;;;6042290;23;20097;-78
2022/01/20 02:36:40;;;;;;;22.15;3.38;;;4.30;99.90;;;;;;6018056;23;20469;-79
2022/01/20 02:39:32;;;;;;;21.23;3.55;;;4.30;99.90;;;;;;6067698;23;20070;-79
2022/01/20 02:47:18;;;;;;;24.33;3.58;;;4.40;99.90;;;;;;6042622;23;20070;-79
2022/01/20 02:49:45;;;;;;;33.58;3.15;;;4.40;99.90;;;;;;6043808;23;20101;-79
2022/01/20 02:52:11;;;;;;;23.10;3.63;;;4.40;99.90;;;;;;6068883;23;20046;-79
2022/01/20 02:54:37;;;;;;;28.00;3.28;;;4.50;99.90;;;;;;6043606;23;20098;-79
2022/01/20 02:57:04;;;;;;;27.27;3.72;;;4.50;99.90;;;;;;6043818;23;20446;-80
2022/01/20 02:59:30;;;;;;;27.30;4.60;;;4.60;99.90;;;;;;6020094;23;20338;-79
2022/01/20 03:01:56;;;;;;;35.78;4.95;;;4.60;99.90;;;;;;6069352;23;20007;-80
2022/01/20 03:04:25;;;;;;;25.70;4.70;;;4.70;99.90;;;;;;6069241;23;20450;-80
2022/01/20 03:06:51;;;;;;;27.73;4.00;;;4.70;99.90;;;;;;6043399;23;20048;-79
2022/01/20 03:09:17;;;;;;;25.25;4.15;;;4.70;99.90;;;;;;6043346;23;20098;-79
2022/01/20 03:11:42;;;;;;;22.70;3.85;;;4.80;99.90;;;;;;6043479;23;20019;-78
2022/01/20 03:14:08;;;;;;;27.10;4.03;;;4.60;99.90;;;;;;6019844;23;20015;-78
2022/01/20 03:16:34;;;;;;;27.77;4.85;;;4.60;99.90;;;;;;6069218;23;20015;-78
2022/01/20 03:18:59;;;;;;;25.02;4.55;;;4.60;99.90;;;;;;6043223;23;20017;-79
2022/01/20 03:21:25;;;;;;;31.25;5.10;;;4.50;99.90;;;;;;6043812;23;20062;-79
2022/01/20 03:23:51;;;;;;;44.35;5.30;;;4.50;99.90;;;;;;6019808;23;20090;-79
2022/01/20 03:26:17;;;;;;;41.58;4.80;;;4.70;99.90;;;;;;6042770;23;20054;-80
2022/01/20 03:28:43;;;;;;;31.73;4.43;;;4.50;99.90;;;;;;6068816;23;20019;-78
2022/01/20 03:31:09;;;;;;;38.95;5.63;;;5.20;99.90;;;;;;6043596;23;20327;-78
2022/01/20 03:33:34;;;;;;;26.88;4.55;;;4.50;99.90;;;;;;6043560;23;20358;-79
2022/01/20 03:36:00;;;;;;;29.30;4.20;;;4.50;99.90;;;;;;5996020;23;20018;-78
2022/01/20 03:38:26;;;;;;;27.35;4.28;;;4.50;99.90;;;;;;6069226;23;20082;-79
2022/01/20 03:40:52;;;;;;;19.75;3.42;;;4.80;99.90;;;;;;6042641;23;20022;-79
2022/01/20 03:43:18;;;;;;;21.55;3.92;;;4.70;99.90;;;;;;6043419;23;20504;-79
2022/01/20 03:45:49;;;;;;;19.73;3.15;;;4.60;99.90;;;;;;6043332;23;20098;-79
2022/01/20 03:48:14;;;;;;;13.75;3.08;;;4.60;99.90;;;;;;6069105;23;20026;-80
2022/01/20 03:53:25;;;;;;;15.80;3.17;;;4.60;99.90;;;;;;6023437;23;20464;-79
2022/01/20 03:55:51;;;;;;;22.90;2.85;;;4.80;99.90;;;;;;6043580;23;20026;-80
2022/01/20 03:58:17;;;;;;;16.92;3.15;;;4.50;99.90;;;;;;6042824;23;20323;-79
2022/01/20 04:00:43;;;;;;;17.08;3.08;;;4.40;99.90;;;;;;6019523;23;20089;-80
2022/01/20 04:03:11;;;;;;;14.95;2.78;;;4.40;99.90;;;;;;6043037;23;20022;-80
2022/01/20 04:05:46;;;;;;;13.27;2.90;;;4.30;99.90;;;;;;6068622;23;20018;-79
2022/01/20 04:08:11;;;;;;;16.43;2.37;;;4.30;99.90;;;;;;6042951;23;20023;-79
2022/01/20 04:10:37;;;;;;;11.82;2.95;;;4.30;99.90;;;;;;6019923;23;20022;-79
2022/01/20 04:13:03;;;;;;;15.05;2.53;;;4.30;99.90;;;;;;6018761;23;20434;-79
2022/01/20 04:15:37;;;;;;;15.13;3.10;;;4.30;99.90;;;;;;6043026;23;20022;-79
2022/01/20 04:18:07;;;;;;;19.85;3.45;;;4.40;99.90;;;;;;6021504;23;20090;-79
2022/01/20 04:20:33;;;;;;;11.68;2.75;;;4.40;99.90;;;;;;6019053;23;20050;-79
2022/01/20 04:22:58;;;;;;;26.25;2.50;;;4.40;99.90;;;;;;6042430;23;20019;-80
2022/01/20 04:25:25;;;;;;;13.43;2.75;;;4.40;99.90;;;;;;6043298;23;20061;-79
2022/01/20 04:27:50;;;;;;;18.92;3.40;;;4.50;99.90;;;;;;6067957;23;20460;-80
2022/01/20 04:30:16;;;;;;;20.45;3.15;;;5.10;99.90;;;;;;6042879;23;20023;-79
2022/01/20 04:32:42;;;;;;;20.70;2.85;;;4.50;99.90;;;;;;6043158;23;20442;-80
2022/01/20 04:35:08;;;;;;;17.25;2.95;;;4.50;99.90;;;;;;6042468;23;20019;-80
2022/01/20 04:37:33;;;;;;;16.25;3.40;;;4.60;99.90;;;;;;6043231;23;20019;-79
2022/01/20 04:40:02;;;;;;;22.23;3.50;;;4.60;99.90;;;;;;6019424;23;20022;-80
2022/01/20 04:42:29;;;;;;;23.63;4.03;;;5.30;99.90;;;;;;6018903;23;20093;-80
2022/01/20 04:45:01;;;;;;;15.90;3.40;;;4.50;99.90;;;;;;5996321;23;20089;-80
2022/01/20 04:47:42;;;;;;;22.95;3.08;;;4.40;99.90;;;;;;6041861;23;20026;-79
2022/01/20 04:58:24;;;;;;;19.77;2.90;;;4.30;99.90;;;;;;6068235;23;20437;-79
2022/01/20 05:00:50;;;;;;;21.65;3.17;;;4.20;99.90;;;;;;6041891;23;20042;-79
2022/01/20 05:03:15;;;;;;;18.40;2.85;;;4.20;99.90;;;;;;6042535;23;20076;-79
2022/01/20 05:05:41;;;;;;;18.50;3.25;;;4.20;99.90;;;;;;6042811;23;20018;-80
2022/01/20 05:08:08;;;;;;;13.10;2.17;;;4.10;99.90;;;;;;6068342;23;20090;-80
2022/01/20 05:10:35;;;;;;;17.70;2.50;;;4.10;99.90;;;;;;6018251;23;20446;-80
2022/01/20 05:13:06;;;;;;;11.65;1.88;;;4.00;99.90;;;;;;6042256;23;20382;-80
2022/01/20 05:15:33;;;;;;;7.88;1.45;;;4.00;99.90;;;;;;6042277;23;20027;-80
2022/01/20 05:18:00;;;;;;;8.95;1.45;;;3.80;99.90;;;;;;6042286;23;20101;-80
2022/01/20 05:20:29;;;;;;;9.27;1.50;;;3.80;99.90;;;;;;6041940;23;20090;-80
2022/01/20 05:22:54;;;;;;;11.70;1.38;;;3.70;99.90;;;;;;6041854;23;20353;-80
2022/01/20 05:25:20;;;;;;;10.27;1.63;;;3.70;99.90;;;;;;5995487;23;20097;-80
2022/01/20 05:27:46;;;;;;;7.53;1.65;;;3.70;99.90;;;;;;6067651;23;20346;-80
2022/01/20 05:30:12;;;;;;;12.80;2.00;;;3.70;99.90;;;;;;6042490;23;20093;-79
2022/01/20 05:32:38;;;;;;;12.93;2.08;;;3.60;99.90;;;;;;6042292;23;20346;-80
2022/01/20 05:35:04;;;;;;;18.25;2.78;;;3.60;99.90;;;;;;6041904;23;20015;-80
2022/01/20 05:37:30;;;;;;;18.80;2.88;;;3.60;99.90;;;;;;6042043;23;20881;-79
2022/01/20 05:39:56;;;;;;;22.17;2.95;;;3.60;99.90;;;;;;6018990;23;20054;-79
2022/01/20 05:42:22;;;;;;;20.38;3.45;;;3.60;99.90;;;;;;6019064;23;20019;-79
2022/01/20 05:44:50;;;;;;;21.27;3.40;;;3.60;99.90;;;;;;6042611;23;20014;-80
2022/01/20 05:47:25;;;;;;;23.48;3.50;;;3.70;99.90;;;;;;6067669;23;20015;-80
2022/01/20 05:49:51;;;;;;;18.58;3.75;;;3.70;99.90;;;;;;5996610;23;20025;-80
2022/01/20 05:52:18;;;;;;;14.75;2.90;;;3.70;99.90;;;;;;6041500;23;20498;-80
2022/01/20 05:54:43;;;;;;;19.13;2.95;;;3.70;99.90;;;;;;6018623;23;20391;-80
2022/01/20 05:57:10;;;;;;;20.13;3.47;;;3.70;99.90;;;;;;6042290;23;20015;-80
2022/01/20 05:59:37;;;;;;;20.27;3.00;;;4.00;99.90;;;;;;6068083;23;20042;-80
2022/01/20 06:02:11;;;;;;;22.27;2.83;;;3.80;99.90;;;;;;6018828;23;20026;-79
2022/01/20 06:04:37;;;;;;;21.02;3.08;;;3.80;99.90;;;;;;6042317;23;20390;-81
2022/01/20 06:07:03;;;;;;;18.70;3.72;;;3.80;99.90;;;;;;6042505;23;20030;-80
2022/01/20 06:09:29;;;;;;;22.80;4.00;;;3.90;99.90;;;;;;6042095;23;20346;-80
2022/01/20 06:11:55;;;;;;;28.48;3.92;;;4.50;99.90;;;;;;6018305;23;20023;-80
2022/01/20 06:14:21;;;;;;;17.45;3.38;;;3.90;99.90;;;;;;6018765;23;20472;-80
2022/01/20 06:16:46;;;;;;;29.38;3.92;;;4.30;99.90;;;;;;6041855;23;20122;-80
2022/01/20 06:19:12;;;;;;;23.60;3.65;;;4.00;99.90;;;;;;6042593;23;20147;-80
2022/01/20 06:21:41;;;;;;;24.95;3.85;;;4.70;99.90;;;;;;6018779;23;20019;-80
2022/01/20 06:24:07;;;;;;;15.60;3.25;;;4.10;99.90;;;;;;6043613;23;20023;-80
2022/01/20 06:26:32;;;;;;;23.23;3.50;;;4.10;99.90;;;;;;6020322;23;20015;-80
2022/01/20 06:29:01;;;;;;;23.70;4.00;;;4.10;99.90;;;;;;6044301;23;20046;-81
2022/01/20 06:31:27;;;;;;;19.90;3.70;;;4.20;99.90;;;;;;6069939;23;20507;-81
2022/01/20 06:33:52;;;;;;;19.35;2.67;;;4.10;99.90;;;;;;6044248;23;20027;-81
2022/01/20 06:36:18;;;;;;;16.25;2.70;;;3.80;99.90;;;;;;6044092;23;20021;-81
2022/01/20 06:38:44;;;;;;;21.50;3.22;;;3.70;99.90;;;;;;6069372;23;20078;-81
2022/01/20 06:41:09;;;;;;;15.98;2.75;;;3.50;99.90;;;;;;6043385;23;20026;-81
2022/01/20 06:43:36;;;;;;;18.38;2.22;;;3.40;99.90;;;;;;5996964;23;20015;-81
2022/01/20 06:46:01;;;;;;;15.00;2.75;;;3.30;99.90;;;;;;6044220;23;20069;-81
2022/01/20 06:48:27;;;;;;;22.17;2.83;;;3.30;99.90;;;;;;6043839;23;20019;-81
2022/01/20 06:50:53;;;;;;;15.88;2.97;;;3.30;99.90;;;;;;6043701;23;20026;-80
2022/01/20 06:53:19;;;;;;;21.40;3.10;;;3.30;99.90;;;;;;6020220;23;20018;-80
2022/01/20 06:55:44;;;;;;;17.02;3.35;;;3.30;99.90;;;;;;6019976;23;20315;-80
2022/01/20 06:58:10;;;;;;;17.08;2.88;;;3.30;99.90;;;;;;6043060;23;20014;-80
2022/01/20 07:00:36;;;;;;;18.60;3.22;;;3.30;99.90;;;;;;5996131;23;20023;-80
2022/01/20 07:03:02;;;;;;;16.88;3.80;;;3.30;99.90;;;;;;6043746;23;20050;-80
2022/01/20 07:05:27;;;;;;;16.65;3.30;;;3.40;99.90;;;;;;6019809;23;20026;-80
2022/01/20 07:07:53;;;;;;;23.42;3.10;;;3.40;99.90;;;;;;6043494;23;20023;-80
2022/01/20 07:10:20;;;;;;;21.92;3.08;;;3.40;99.90;;;;;;6019716;23;20019;-79
2022/01/20 07:12:47;;;;;;;20.85;3.13;;;3.40;99.90;;;;;;6069048;23;20018;-79
2022/01/20 07:15:15;;;;;;;24.60;3.20;;;3.50;99.90;;;;;;6019552;23;20082;-79
2022/01/20 07:17:41;;;;;;;15.38;3.10;;;3.50;99.90;;;;;;6019948;23;20442;-78
2022/01/20 07:20:08;;;;;;;17.23;2.92;;;3.60;99.90;;;;;;6043149;23;20022;-79
2022/01/20 07:22:34;;;;;;;17.02;2.63;;;3.60;99.90;;;;;;6042780;23;20437;-80
2022/01/20 07:24:59;;;;;;;22.08;3.30;;;3.50;99.90;;;;;;5995520;23;20026;-76
2022/01/20 07:27:27;;;;;;;14.27;2.55;;;3.60;99.90;;;;;;6019725;23;20030;-77
2022/01/20 07:29:53;;;;;;;12.32;2.55;;;3.50;99.90;;;;;;6043163;23;20089;-77
2022/01/20 07:32:19;;;;;;;14.43;2.63;;;3.50;99.90;;;;;;6019342;23;20050;-77
2022/01/20 07:34:45;;;;;;;15.52;2.40;;;3.50;99.90;;;;;;6068634;23;20070;-77
2022/01/20 07:37:11;;;;;;;11.98;2.20;;;3.50;99.90;;;;;;6042917;23;20019;-77
2022/01/20 07:39:36;;;;;;;21.00;3.25;;;3.80;99.90;;;;;;6042593;23;20030;-77
2022/01/20 07:42:03;;;;;;;22.25;3.58;;;3.50;99.90;;;;;;6068930;23;20492;-77
2022/01/20 07:44:28;;;;;;;16.27;3.13;;;3.50;99.90;;;;;;6043043;23;20015;-76
2022/01/20 07:46:54;;;;;;;16.33;3.10;;;3.50;99.90;;;;;;6041857;23;20111;-78
2022/01/20 07:49:20;;;;;;;23.70;3.03;;;3.50;99.90;;;;;;6018712;23;20525;-78
2022/01/20 07:51:45;;;;;;;21.27;3.00;;;3.50;99.90;;;;;;6041735;23;20023;-77
2022/01/20 07:54:12;;;;;;;14.25;2.60;;;3.50;99.90;;;;;;6018298;23;20098;-77
2022/01/20 07:56:37;;;;;;;11.32;2.15;;;3.30;99.90;;;;;;6042255;23;20026;-77
2022/01/20 07:59:03;;;;;;;12.07;1.70;;;3.30;99.90;;;;;;6068864;23;20442;-78
2022/01/20 08:01:29;;;;;;;12.32;2.20;;;3.30;99.90;;;;;;5995812;23;20701;-78
2022/01/20 08:03:55;;;;;;;22.02;3.40;;;3.30;99.90;;;;;;6067470;23;20458;-77
2022/01/20 08:06:22;;;;;;;14.07;3.00;;;3.30;99.90;;;;;;6067780;23;20015;-77
2022/01/20 08:08:50;;;;;;;18.40;3.03;;;3.30;99.90;;;;;;6068474;23;20444;-77
2022/01/20 08:11:17;;;;;;;15.90;3.05;;;3.30;99.90;;;;;;6043104;23;20021;-75
2022/01/20 08:13:43;;;;;;;16.17;3.30;;;3.30;99.90;;;;;;6018947;23;20026;-78
2022/01/20 08:16:08;;;;;;;21.95;3.95;;;3.30;99.90;;;;;;5995436;23;20320;-78
2022/01/20 08:18:40;;;;;;;20.90;4.07;;;4.00;99.90;;;;;;6018969;23;20177;-82
2022/01/20 08:21:06;;;;;;;22.33;3.00;;;3.80;99.90;;;;;;6067792;23;20015;-81
2022/01/20 08:23:32;;;;;;;25.17;4.68;;;3.70;99.90;;;;;;6042236;23;20046;-80
2022/01/20 08:25:58;;;;;;;18.75;3.80;;;3.50;99.90;;;;;;6018919;23;20023;-77
2022/01/20 08:28:24;;;;;;;16.67;2.65;;;3.50;99.90;;;;;;6067934;23;20015;-72
2022/01/20 08:30:50;;;;;;;18.50;2.78;;;4.40;99.90;;;;;;6042460;23;20075;-72
2022/01/20 08:33:16;;;;;;;21.65;3.88;;;3.60;99.90;;;;;;6042764;23;20074;-72
2022/01/20 08:35:42;;;;;;;19.98;3.28;;;3.60;99.90;;;;;;6068163;23;20023;-72
2022/01/20 08:38:08;;;;;;;18.25;2.85;;;3.70;99.90;;;;;;6068274;23;20015;-73
2022/01/20 08:40:35;;;;;;;22.20;3.38;;;3.70;99.90;;;;;;6041977;23;20018;-74
2022/01/20 08:43:02;;;;;;;18.30;2.80;;;3.70;99.90;;;;;;6042304;23;20051;-74
2022/01/20 08:45:31;;;;;;;17.98;2.75;;;3.80;99.90;;;;;;6067149;23;20021;-82
2022/01/20 08:47:59;;;;;;;11.73;1.90;;;3.90;99.90;;;;;;6018702;23;20021;-83
2022/01/20 08:50:29;;;;;;;12.98;1.85;;;3.90;99.90;;;;;;6042418;23;20075;-82
2022/01/20 08:52:55;;;;;;;13.98;3.13;;;3.80;99.90;;;;;;6068058;23;20017;-81
2022/01/20 08:55:23;;;;;;;15.57;2.25;;;4.10;99.90;;;;;;6042567;23;20322;-80
2022/01/20 08:57:52;;;;;;;8.30;1.73;;;3.30;99.90;;;;;;6019089;23;20387;-80
2022/01/20 09:00:19;;;;;;;10.73;1.75;;;3.30;99.90;;;;;;6067864;23;20074;-81
2022/01/20 09:02:45;;;;;;;8.55;1.67;;;3.20;99.90;;;;;;6040759;23;20013;-86
2022/01/20 09:05:11;;;;;;;9.10;1.42;;;3.10;99.90;;;;;;6018460;23;20085;-72
2022/01/20 09:07:37;;;;;;;10.43;1.67;;;3.10;99.90;;;;;;6067283;23;20466;-71
2022/01/20 09:10:07;;;;;;;5.78;1.52;;;3.10;99.90;;;;;;6042595;23;20497;-72
2022/01/20 09:17:47;;;;;;;12.07;2.42;;;3.30;99.90;;;;;;6022812;23;20484;-71
2022/01/20 09:20:12;;;;;;;12.93;2.47;;;3.40;99.90;;;;;;6041950;23;20015;-71
2022/01/20 09:22:38;;;;;;;17.40;2.90;;;3.30;99.90;;;;;;6041522;23;20017;-71
2022/01/20 09:25:06;;;;;;;11.20;2.03;;;3.20;99.90;;;;;;6067392;23;20026;-72
2022/01/20 09:27:32;;;;;;;10.63;1.77;;;3.20;99.90;;;;;;6041583;23;20461;-72
2022/01/20 09:29:58;;;;;;;17.67;2.83;;;3.30;99.90;;;;;;6041716;23;20034;-71
2022/01/20 09:32:27;;;;;;;12.93;2.10;;;3.20;99.90;;;;;;6067278;23;20370;-71
2022/01/20 09:34:52;;;;;;;15.88;3.08;;;3.20;99.90;;;;;;6066115;23;20018;-72
2022/01/20 09:37:18;;;;;;;12.85;2.70;;;3.20;99.90;;;;;;6041698;23;20041;-72
2022/01/20 09:39:45;;;;;;;19.20;2.47;;;3.20;99.90;;;;;;6042595;23;20011;-71
2022/01/20 09:42:11;;;;;;;15.27;2.65;;;3.30;99.90;;;;;;6041595;23;20085;-71
2022/01/20 09:44:46;;;;;;;16.13;2.30;;;3.30;99.90;;;;;;6041950;23;20019;-71
2022/01/20 09:47:12;;;;;;;18.65;3.08;;;3.40;99.90;;;;;;6067293;23;20018;-71
2022/01/20 09:49:38;;;;;;;16.38;2.97;;;3.50;99.90;;;;;;6041698;23;20015;-71
2022/01/20 09:52:05;;;;;;;17.83;3.00;;;3.70;99.90;;;;;;6042133;23;20341;-71
2022/01/20 09:54:31;;;;;;;19.95;3.17;;;3.80;99.90;;;;;;6067603;23;20023;-75
2022/01/20 09:56:58;;;;;;;19.23;3.55;;;3.90;99.90;;;;;;6043574;23;20023;-77
2022/01/20 09:59:24;;;;;;;21.88;3.67;;;3.90;99.90;;;;;;6045621;23;20029;-77
2022/01/20 10:01:56;;;;;;;20.23;3.10;;;3.90;99.90;;;;;;6045207;23;20026;-77
2022/01/20 10:04:29;;;;;;;15.88;2.40;;;4.00;99.90;;;;;;6045396;23;20383;-77
2022/01/20 10:06:57;;;;;;;17.80;2.88;;;4.00;99.90;;;;;;6045322;23;20461;-77
2022/01/20 10:09:36;;;;;;;16.13;3.00;;;4.10;99.90;;;;;;6045822;23;20564;-77
2022/01/20 10:12:03;;;;;;;17.25;3.28;;;4.20;99.90;;;;;;6044958;23;20023;-77
2022/01/20 10:14:39;;;;;;;16.02;3.00;;;4.30;99.90;;;;;;6021883;23;20447;-77
2022/01/20 10:17:24;;;;;;;17.27;3.17;;;4.30;99.90;;;;;;6045040;23;20015;-77
2022/01/20 10:20:04;;;;;;;16.08;3.03;;;4.30;99.90;;;;;;6045469;23;20050;-77
2022/01/20 10:22:31;;;;;;;20.60;3.35;;;4.40;99.90;;;;;;6021897;23;20014;-77
2022/01/20 10:25:02;;;;;;;14.07;2.45;;;4.30;99.90;;;;;;5998541;23;20050;-77
2022/01/20 10:27:33;;;;;;;29.08;3.40;;;4.30;99.90;;;;;;6070680;23;20030;-77
2022/01/20 10:30:03;;;;;;;16.27;3.67;;;4.30;99.90;;;;;;6045325;23;20553;-78
2022/01/20 10:32:40;;;;;;;19.65;3.72;;;4.30;99.90;;;;;;6045597;23;20096;-77
2022/01/20 10:35:07;;;;;;;20.00;3.78;;;4.30;99.90;;;;;;6071069;23;20022;-77
2022/01/20 10:37:32;;;;;;;18.45;3.67;;;4.40;99.90;;;;;;6045046;23;20069;-77
2022/01/20 10:40:07;;;;;;;18.70;3.25;;;4.50;99.90;;;;;;6045161;23;20128;-77
2022/01/20 10:42:45;;;;;;;18.10;2.90;;;4.50;99.90;;;;;;6021781;23;20018;-77
2022/01/20 10:45:19;;;;;;;13.75;2.22;;;4.40;99.90;;;;;;6021705;23;20346;-77
2022/01/20 10:47:49;;;;;;;16.23;3.13;;;4.50;99.90;;;;;;6021594;23;20154;-77
2022/01/20 10:50:21;;;;;;;20.02;3.08;;;4.70;99.90;;;;;;6045515;23;20019;-77
2022/01/20 10:52:47;;;;;;;12.93;2.25;;;4.60;99.90;;;;;;6044512;23;20449;-78
2022/01/20 10:55:24;;;;;;;14.13;2.10;;;4.90;99.90;;;;;;6021460;23;20022;-78
2022/01/20 10:57:55;;;;;;;12.98;2.60;;;4.50;99.90;;;;;;6070396;23;20019;-78
2022/01/20 11:00:23;;;;;;;19.42;2.72;;;4.60;99.90;;;;;;6045147;23;20457;-78
2022/01/20 11:02:54;;;;;;;18.10;2.78;;;4.50;99.90;;;;;;6044656;23;20090;-78
2022/01/20 11:05:21;;;;;;;19.00;2.88;;;4.70;99.90;;;;;;6070768;23;20453;-77
2022/01/20 11:07:48;;;;;;;23.33;2.95;;;4.60;99.90;;;;;;6044285;23;20011;-77
2022/01/20 11:10:14;;;;;;;24.58;3.42;;;4.70;99.90;;;;;;6043761;23;20017;-77
2022/01/20 11:12:41;;;;;;;17.75;2.90;;;4.80;99.90;;;;;;6019729;23;20011;-77
2022/01/20 11:15:13;;;;;;;16.48;2.80;;;4.80;99.90;;;;;;6043721;23;20382;-77
2022/01/20 11:17:40;;;;;;;21.67;2.95;;;4.80;99.90;;;;;;6043523;23;20019;-77
2022/01/20 11:20:17;;;;;;;16.48;3.65;;;4.80;99.90;;;;;;6043697;23;20042;-78
2022/01/20 11:23:04;;;;;;;26.88;4.15;;;4.80;99.90;;;;;;6043434;23;20070;-78
2022/01/20 11:25:35;;;;;;;26.63;4.13;;;4.80;99.90;;;;;;6068904;23;20015;-78
2022/01/20 11:28:08;;;;;;;21.13;3.75;;;4.70;99.90;;;;;;6019654;23;20065;-77
2022/01/20 11:30:52;;;;;;;21.35;3.17;;;5.00;99.90;;;;;;6043923;23;20065;-77
2022/01/20 11:33:18;;;;;;;22.17;3.38;;;4.60;99.90;;;;;;6019236;23;20019;-77
2022/01/20 11:35:51;;;;;;;26.42;3.60;;;4.70;99.90;;;;;;6019264;23;20027;-77
2022/01/20 11:38:20;;;;;;;19.85;3.15;;;4.70;99.90;;;;;;6068091;23;20022;-78
2022/01/20 11:40:52;;;;;;;13.05;2.78;;;4.90;99.90;;;;;;6042285;23;20382;-77
2022/01/20 11:43:19;;;;;;;20.35;3.20;;;4.50;99.90;;;;;;6043149;23;20094;-79
2022/01/20 11:45:50;;;;;;;25.15;3.80;;;4.40;99.90;;;;;;6043446;23;20066;-78
2022/01/20 11:48:21;;;;;;;27.02;4.00;;;4.30;99.90;;;;;;6037726;23;20022;-77
2022/01/20 11:51:01;;;;;;;23.85;3.75;;;4.60;99.90;;;;;;6040260;23;20315;-77
2022/01/20 11:53:27;;;;;;;23.20;3.78;;;4.10;99.90;;;;;;6039796;23;20090;-78
2022/01/20 11:55:55;;;;;;;14.13;3.08;;;4.10;99.90;;;;;;6016723;23;20023;-77
2022/01/20 11:58:22;;;;;;;15.00;2.83;;;4.10;99.90;;;;;;6016650;23;20051;-77
2022/01/20 12:01:02;;;;;;;13.05;2.83;;;4.20;99.90;;;;;;6066278;23;20029;-78
2022/01/20 12:03:29;;;;;;;18.25;3.85;;;4.30;99.90;;;;;;6066066;23;20097;-79
2022/01/20 12:06:09;;;;;;;21.92;3.88;;;4.50;99.90;;;;;;6066134;23;20034;-78
2022/01/20 12:08:35;;;;;;;22.25;4.43;;;4.60;99.90;;;;;;6016445;23;20086;-78
2022/01/20 12:11:05;;;;;;;34.88;4.05;;;4.70;99.90;;;;;;6039967;23;20022;-78
2022/01/20 12:13:31;;;;;;;18.45;3.45;;;4.80;99.90;;;;;;6040806;23;20015;-78
2022/01/20 12:16:02;;;;;;;19.70;3.38;;;4.60;99.90;;;;;;6040169;23;20019;-79
2022/01/20 12:18:29;;;;;;;20.90;3.40;;;4.70;99.90;;;;;;6039863;23;20054;-79
2022/01/20 12:20:58;;;;;;;24.48;3.13;;;4.60;99.90;;;;;;6065021;23;20025;-78
2022/01/20 12:23:24;;;;;;;25.58;3.38;;;5.10;99.90;;;;;;6039717;23;20023;-78
2022/01/20 12:25:50;;;;;;;22.25;3.00;;;4.80;99.90;;;;;;6015875;23;20036;-79
2022/01/20 12:28:17;;;;;;;20.65;3.28;;;4.70;99.90;;;;;;6066178;23;20040;-78
2022/01/20 12:30:48;;;;;;;19.70;3.20;;;4.70;99.90;;;;;;6039842;23;20050;-78
2022/01/20 12:33:15;;;;;;;23.55;3.33;;;4.80;99.90;;;;;;6016479;23;20015;-78
2022/01/20 12:35:46;;;;;;;20.83;3.40;;;4.80;99.90;;;;;;6016324;23;20015;-78
2022/01/20 12:38:26;;;;;;;18.98;3.35;;;4.80;99.90;;;;;;6040205;23;20022;-77
2022/01/20 12:41:01;;;;;;;25.88;4.18;;;4.80;99.90;;;;;;6065183;23;20081;-77
2022/01/20 12:43:45;;;;;;;17.05;3.75;;;4.80;99.90;;;;;;6016505;23;20078;-78
2022/01/20 12:46:14;;;;;;;21.58;3.72;;;4.80;99.90;;;;;;6039800;23;20066;-79
2022/01/20 12:49:08;;;;;;;18.65;2.88;;;4.80;99.90;;;;;;6040346;23;20022;-79
2022/01/20 12:51:43;;;;;;;18.88;3.33;;;4.60;99.90;;;;;;6017313;23;20070;-78
2022/01/20 12:54:21;;;;;;;19.25;2.97;;;4.90;99.90;;;;;;6040227;23;20023;-78
2022/01/20 12:56:49;;;;;;;26.80;4.15;;;4.90;99.90;;;;;;6040082;23;20014;-78
2022/01/20 12:59:26;;;;;;;24.48;3.30;;;5.00;99.90;;;;;;6039066;23;20018;-79
2022/01/20 13:01:54;;;;;;;25.60;4.15;;;5.00;99.90;;;;;;6015592;23;20018;-79
2022/01/20 13:04:22;;;;;;;21.58;3.78;;;5.00;99.90;;;;;;6063717;23;20027;-79
2022/01/20 13:06:56;;;;;;;22.90;4.28;;;5.20;99.90;;;;;;6065215;23;20017;-79
2022/01/20 13:09:25;;;;;;;20.00;3.97;;;5.10;99.90;;;;;;6039775;23;20019;-79
2022/01/20 13:11:59;;;;;;;19.67;2.80;;;5.10;99.90;;;;;;6065637;23;20015;-78
2022/01/20 13:14:44;;;;;;;15.35;2.30;;;4.70;99.90;;;;;;6039993;23;20025;-78
2022/01/20 13:17:25;;;;;;;10.02;1.80;;;4.40;99.90;;;;;;6064782;23;20014;-79
2022/01/20 13:19:54;;;;;;;12.32;1.88;;;4.30;99.90;;;;;;6065823;23;20110;-74
2022/01/20 13:22:30;;;;;;;4.25;1.23;;;4.20;99.90;;;;;;6039040;23;20014;-74
2022/01/20 13:25:24;;;;;;;8.07;1.30;;;4.10;99.90;;;;;;6038188;23;20022;-78
2022/01/20 13:27:55;;;;;;;6.97;1.27;;;4.00;99.90;;;;;;6034874;23;20029;-78
2022/01/20 13:30:40;;;;;;;6.70;1.55;;;4.00;99.90;;;;;;6039952;23;20054;-77
2022/01/20 13:33:16;;;;;;;5.95;1.63;;;4.10;99.90;;;;;;6064701;23;20015;-81
2022/01/20 13:36:10;;;;;;;13.30;2.28;;;4.20;99.90;;;;;;6039401;23;20023;-84
2022/01/20 13:38:41;;;;;;;15.55;2.05;;;4.20;99.90;;;;;;5987460;23;20037;-79
2022/01/20 13:41:18;;;;;;;14.60;2.50;;;4.30;99.90;;;;;;6065518;23;20015;-78
2022/01/20 13:47:09;;;;;;;18.65;2.65;;;4.40;99.90;;;;;;6069366;23;20023;-76
2022/01/20 13:49:45;;;;;;;13.10;2.50;;;4.30;99.90;;;;;;6012842;23;20082;-71
2022/01/20 13:52:14;;;;;;;12.18;2.15;;;4.30;99.90;;;;;;6064402;23;20014;-72
2022/01/20 13:54:42;;;;;;;15.93;2.67;;;4.50;99.90;;;;;;6064539;23;20019;-71
2022/01/20 13:57:09;;;;;;;16.23;2.83;;;4.50;99.90;;;;;;6038957;23;20015;-72
2022/01/20 13:59:45;;;;;;;17.23;3.15;;;4.50;99.90;;;;;;6039428;23;20095;-71
2022/01/20 14:02:11;;;;;;;19.48;3.05;;;4.50;99.90;;;;;;6039015;23;20066;-72
2022/01/20 14:04:37;;;;;;;22.35;3.20;;;4.50;99.90;;;;;;6038990;23;20354;-71
2022/01/20 14:07:02;;;;;;;16.95;2.50;;;4.50;99.90;;;;;;6064793;23;20034;-71